createdAt,value
2022-12-23T05:07:00.473Z,93.93
2022-12-23T05:10:03.200Z,82.18
2022-12-23T05:13:05.343Z,71.97
2022-12-23T05:16:07.973Z,78.65
2022-12-23T05:19:10.617Z,73.35
2022-12-23T05:22:13.066Z,71.90
2022-12-23T05:25:15.271Z,85.43
2022-12-23T05:28:17.680Z,68.10
2022-12-23T05:31:19.814Z,79.87
2022-12-23T05:34:22.380Z,77.85
2022-12-23T05:37:24.482Z,70.87
2022-12-23T05:40:28.167Z,65.53
2022-12-23T05:43:35.361Z,54.78
2022-12-23T05:46:37.938Z,59.67
2022-12-23T05:49:40.129Z,63.40
2022-12-23T05:52:42.475Z,57.65
2022-12-23T05:55:44.614Z,56.25
2022-12-23T05:58:46.968Z,46.33
2022-12-23T06:01:49.801Z,45.08
2022-12-23T06:04:52.238Z,46.28
2022-12-23T06:07:54.576Z,51.42
2022-12-23T06:10:57.103Z,53.20
2022-12-23T06:13:59.182Z,49.65
2022-12-23T06:17:01.631Z,51.65
2022-12-23T06:20:04.787Z,59.95
2022-12-23T06:23:07.256Z,46.15
2022-12-23T06:26:09.389Z,46.53
2022-12-23T06:29:11.800Z,47.42
2022-12-23T06:32:14.309Z,46.75
2022-12-23T06:35:16.763Z,47.50
2022-12-23T06:38:18.902Z,53.28
2022-12-23T06:41:21.245Z,51.50
2022-12-23T06:44:23.392Z,51.60
2022-12-23T06:47:25.872Z,50.35
2022-12-23T06:50:27.970Z,44.53
2022-12-23T06:53:30.358Z,46.95
2022-12-23T06:56:35.295Z,51.88
2022-12-23T06:59:37.697Z,56.37
2022-12-23T07:02:39.994Z,46.28
2022-12-23T07:05:42.623Z,49.60
2022-12-23T07:08:44.718Z,51.08
2022-12-23T07:11:47.064Z,47.15
2022-12-23T07:14:49.650Z,38.78
2022-12-23T07:17:52.024Z,39.75
2022-12-23T07:20:54.337Z,47.72
2022-12-23T07:23:56.839Z,44.80
2022-12-23T07:26:58.948Z,44.47
2022-12-23T07:30:01.533Z,46.75
2022-12-23T07:33:03.774Z,44.45
2022-12-23T07:36:06.660Z,43.35
2022-12-23T07:39:08.776Z,41.97
2022-12-23T07:45:33.440Z,45.33
2022-12-23T07:48:36.262Z,44.72
2022-12-23T07:51:38.399Z,40.95
2022-12-23T07:54:40.846Z,42.20
2022-12-23T07:57:42.951Z,45.12
2022-12-23T08:00:45.302Z,42.40
2022-12-23T08:03:48.647Z,48.15
2022-12-23T08:06:50.803Z,40.60
2022-12-23T08:09:53.259Z,39.88
2022-12-23T08:12:55.569Z,44.03
2022-12-23T08:15:59.432Z,42.05
2022-12-23T08:19:01.646Z,42.38
2022-12-23T08:22:04.120Z,47.62
2022-12-23T08:25:06.863Z,46.13
2022-12-23T08:28:09.214Z,46.80
2022-12-23T08:31:17.630Z,50.33
2022-12-23T08:34:20.051Z,56.47
2022-12-23T08:37:22.262Z,57.08
2022-12-23T08:40:24.727Z,55.47
2022-12-23T08:43:33.571Z,50.70
2022-12-23T08:46:38.785Z,52.22
2022-12-23T08:49:41.001Z,53.47
2022-12-23T08:52:43.480Z,56.35
2022-12-23T08:55:47.624Z,53.35
2022-12-23T08:58:55.163Z,56.05
2022-12-23T09:01:59.668Z,55.28
2022-12-23T09:05:02.232Z,54.60
2022-12-23T09:08:04.593Z,61.22
2022-12-23T09:11:11.694Z,58.63
2022-12-23T09:14:13.936Z,61.37
2022-12-23T09:17:17.655Z,58.45
2022-12-23T09:20:19.791Z,54.47
2022-12-23T09:23:22.349Z,63.78
2022-12-23T09:26:27.447Z,54.72
2022-12-23T09:29:29.798Z,52.10
2022-12-23T09:32:31.954Z,49.80
2022-12-23T09:35:34.430Z,54.38
2022-12-23T09:38:36.723Z,47.47
2022-12-23T09:42:09.268Z,51.72
2022-12-23T09:45:40.149Z,48.75
2022-12-23T09:48:51.074Z,44.38
2022-12-23T09:52:00.138Z,43.20
2022-12-23T09:55:02.692Z,45.65
2022-12-23T09:58:19.719Z,41.72
2022-12-23T10:01:44.831Z,42.58
2022-12-23T10:05:09.027Z,46.88
2022-12-23T10:08:22.700Z,44.03
2022-12-23T10:11:31.956Z,45.03
2022-12-23T10:14:36.605Z,48.78
2022-12-23T10:17:41.734Z,45.97
2022-12-23T10:20:53.325Z,47.83
2022-12-23T10:23:55.999Z,46.33
2022-12-23T10:27:03.600Z,46.60
2022-12-23T10:30:42.684Z,43.40
2022-12-23T10:33:57.146Z,44.22
2022-12-23T10:37:22.115Z,45.80
2022-12-23T10:41:05.324Z,52.25
2022-12-23T10:44:38.583Z,47.03
2022-12-23T10:47:51.637Z,56.60
2022-12-23T10:51:01.241Z,51.70
2022-12-23T10:54:12.327Z,57.00
2022-12-23T10:57:17.273Z,50.05
2022-12-23T11:00:22.784Z,53.35
2022-12-23T11:03:36.535Z,53.22
2022-12-23T11:06:42.601Z,58.92
2022-12-23T11:10:18.789Z,50.35
2022-12-23T11:13:42.084Z,52.70
2022-12-23T11:16:47.352Z,54.20
2022-12-23T11:20:12.748Z,52.67
2022-12-23T11:23:36.583Z,52.83
2022-12-23T11:26:39.343Z,53.90
2022-12-23T11:29:54.463Z,44.78
2022-12-23T11:32:57.024Z,53.13
2022-12-23T11:36:00.782Z,58.05
2022-12-23T11:39:07.538Z,57.20
2022-12-23T11:42:17.796Z,57.83
2022-12-23T11:45:25.569Z,59.90
2022-12-23T11:48:30.592Z,56.72
2022-12-23T11:51:32.774Z,55.60
2022-12-23T11:54:35.194Z,63.65
2022-12-23T11:57:48.619Z,62.62
2022-12-23T12:00:58.132Z,55.95
2022-12-23T12:04:05.482Z,58.45
2022-12-23T12:07:13.059Z,54.72
2022-12-23T12:10:21.177Z,59.10
2022-12-23T12:13:30.545Z,56.30
2022-12-23T12:16:35.808Z,60.58
2022-12-23T12:19:48.439Z,58.38
2022-12-23T12:22:56.081Z,62.15
2022-12-23T12:26:06.129Z,59.88
2022-12-23T12:29:31.982Z,94.07
2022-12-23T12:32:46.687Z,79.85
2022-12-23T12:36:05.523Z,70.35
2022-12-23T12:39:19.302Z,74.80
2022-12-23T12:42:40.191Z,67.75
2022-12-23T12:45:50.972Z,74.93
2022-12-23T12:49:06.844Z,72.97
2022-12-23T12:52:38.931Z,65.97
2022-12-23T12:55:47.391Z,64.05
2022-12-23T12:58:50.252Z,66.15
2022-12-23T13:01:59.334Z,74.78
2022-12-23T13:05:24.452Z,67.20
2022-12-23T13:08:48.495Z,67.57
2022-12-23T13:12:28.872Z,64.53
2022-12-23T13:15:34.320Z,65.00
2022-12-23T13:18:42.126Z,62.35
2022-12-23T13:21:51.532Z,64.85
2022-12-23T13:25:14.415Z,71.80
2022-12-23T13:28:35.758Z,72.35
2022-12-23T13:31:51.439Z,70.90
2022-12-23T13:35:19.819Z,69.60
2022-12-23T13:39:05.889Z,74.50
2022-12-23T13:42:13.749Z,73.03
2022-12-23T13:45:18.730Z,74.90
2022-12-23T13:48:38.137Z,73.55
2022-12-23T13:51:59.072Z,76.85
2022-12-23T13:55:20.080Z,72.35
2022-12-23T13:58:26.021Z,70.22
2022-12-23T14:01:40.472Z,68.82
2022-12-23T14:04:55.336Z,76.32
2022-12-23T14:08:03.484Z,66.35
2022-12-23T14:11:17.059Z,75.30
2022-12-23T14:14:56.900Z,67.12
2022-12-23T14:18:29.778Z,65.18
2022-12-23T14:21:55.846Z,89.65
2022-12-23T14:25:19.940Z,67.72
2022-12-23T14:29:14.598Z,76.30
2022-12-23T14:32:27.071Z,70.32
2022-12-23T14:35:38.325Z,81.40
2022-12-23T14:39:13.602Z,71.37
2022-12-23T14:42:41.255Z,78.90
2022-12-23T14:45:44.121Z,76.10
2022-12-23T14:48:46.172Z,74.65
2022-12-23T14:51:50.870Z,81.82
2022-12-23T14:55:20.981Z,77.95
2022-12-23T14:58:18.611Z,73.07
2022-12-23T15:01:30.325Z,64.97
2022-12-23T15:04:44.162Z,81.32
2022-12-23T15:07:46.862Z,74.78
2022-12-23T15:10:49.882Z,73.90
2022-12-23T15:13:53.931Z,73.12
2022-12-23T15:16:56.395Z,89.37
2022-12-23T15:20:23.396Z,89.80
2022-12-23T15:23:26.099Z,114.55
2022-12-23T15:26:31.699Z,74.43
